Terminal Aerodrome Forecast
Issued by NWS Wilmington, OH

Current Version | Previous Version | Graphics & Text | Print | Product List | Glossary On
Versions: 1 2 3 4 5 6 7 8 9 10 11 12 13 14 15 16 17 18 19 20 21 22 23 24 25 26 27
000
FTUS41 KILN 210741 AAA
TAFCVG
TAF AMD
KCVG 210741Z 2108/2212 18006KT P6SM SCT040
     FM211400 18009KT P6SM SCT040 BKN200
     FM220300 15004KT P6SM SCT025 BKN070=

USA.gov is the U.S. government's official web portal to all federal, state and local government web resources and services.